sensor_id;sensor_type;location;lat;lon;timestamp;pressure;altitude;pressure_sealevel;temperature
73685;BMP280;61985;51.070;14.064;2023-03-01T00:00:53;99924.28;;;-5.55
73685;BMP280;61985;51.070;14.064;2023-03-01T00:03:19;99922.91;;;-5.52
73685;BMP280;61985;51.070;14.064;2023-03-01T00:05:45;99918.44;;;-5.47
73685;BMP280;61985;51.070;14.064;2023-03-01T00:08:11;99919.88;;;-5.35
73685;BMP280;61985;51.070;14.064;2023-03-01T00:10:36;99914.53;;;-5.25
73685;BMP280;61985;51.070;14.064;2023-03-01T00:13:02;99916.78;;;-5.13
73685;BMP280;61985;51.070;14.064;2023-03-01T00:15:30;99917.03;;;-5.09
73685;BMP280;61985;51.070;14.064;2023-03-01T00:17:56;99920.56;;;-5.24
73685;BMP280;61985;51.070;14.064;2023-03-01T00:20:22;99912.28;;;-5.32
73685;BMP280;61985;51.070;14.064;2023-03-01T00:22:47;99917.72;;;-5.28
73685;BMP280;61985;51.070;14.064;2023-03-01T00:25:12;99917.03;;;-5.39
73685;BMP280;61985;51.070;14.064;2023-03-01T00:27:38;99911.03;;;-5.44
73685;BMP280;61985;51.070;14.064;2023-03-01T00:30:03;99918.72;;;-5.48
73685;BMP280;61985;51.070;14.064;2023-03-01T00:32:29;99910.88;;;-5.53
73685;BMP280;61985;51.070;14.064;2023-03-01T00:34:54;99918.44;;;-5.47
73685;BMP280;61985;51.070;14.064;2023-03-01T00:37:23;99911.88;;;-5.49
73685;BMP280;61985;51.070;14.064;2023-03-01T00:39:49;99917.22;;;-5.59
73685;BMP280;61985;51.070;14.064;2023-03-01T00:42:15;99910.69;;;-5.62
73685;BMP280;61985;51.070;14.064;2023-03-01T00:44:40;99904.72;;;-5.73
73685;BMP280;61985;51.070;14.064;2023-03-01T00:47:05;99905.75;;;-5.69
73685;BMP280;61985;51.070;14.064;2023-03-01T00:49:31;99907.41;;;-5.83
73685;BMP280;61985;51.070;14.064;2023-03-01T00:51:56;99904.06;;;-5.89
73685;BMP280;61985;51.070;14.064;2023-03-01T00:54:22;99909.03;;;-5.87
73685;BMP280;61985;51.070;14.064;2023-03-01T00:56:47;99907.78;;;-5.95
73685;BMP280;61985;51.070;14.064;2023-03-01T00:59:12;99901.72;;;-5.95
73685;BMP280;61985;51.070;14.064;2023-03-01T01:01:38;99894.56;;;-5.85
73685;BMP280;61985;51.070;14.064;2023-03-01T01:04:06;99896.78;;;-6.02
73685;BMP280;61985;51.070;14.064;2023-03-01T01:06:38;99907.50;;;-5.99
73685;BMP280;61985;51.070;14.064;2023-03-01T01:09:07;99904.38;;;-6.01
73685;BMP280;61985;51.070;14.064;2023-03-01T01:11:33;99893.88;;;-6.01
73685;BMP280;61985;51.070;14.064;2023-03-01T01:14:01;99893.31;;;-5.92
73685;BMP280;61985;51.070;14.064;2023-03-01T01:16:27;99886.09;;;-6.11
73685;BMP280;61985;51.070;14.064;2023-03-01T01:18:53;99899.22;;;-6.16
73685;BMP280;61985;51.070;14.064;2023-03-01T01:21:21;99882.72;;;-6.17
73685;BMP280;61985;51.070;14.064;2023-03-01T01:23:48;99878.25;;;-6.16
73685;BMP280;61985;51.070;14.064;2023-03-01T01:26:22;99877.22;;;-6.20
73685;BMP280;61985;51.070;14.064;2023-03-01T01:28:48;99879.63;;;-6.29
73685;BMP280;61985;51.070;14.064;2023-03-01T01:31:14;99870.97;;;-6.24
73685;BMP280;61985;51.070;14.064;2023-03-01T01:33:39;99879.38;;;-6.27
73685;BMP280;61985;51.070;14.064;2023-03-01T01:36:06;99874.69;;;-6.41
73685;BMP280;61985;51.070;14.064;2023-03-01T01:38:32;99869.97;;;-6.34
73685;BMP280;61985;51.070;14.064;2023-03-01T01:40:59;99872.81;;;-6.30
73685;BMP280;61985;51.070;14.064;2023-03-01T01:43:37;99873.38;;;-6.33
73685;BMP280;61985;51.070;14.064;2023-03-01T01:46:30;99876.22;;;-6.29
73685;BMP280;61985;51.070;14.064;2023-03-01T01:49:02;99869.97;;;-6.34
73685;BMP280;61985;51.070;14.064;2023-03-01T01:51:32;99858.66;;;-6.29
73685;BMP280;61985;51.070;14.064;2023-03-01T01:54:07;99865.75;;;-6.35
73685;BMP280;61985;51.070;14.064;2023-03-01T01:56:33;99864.66;;;-6.28
73685;BMP280;61985;51.070;14.064;2023-03-01T01:58:59;99862.88;;;-6.33
73685;BMP280;61985;51.070;14.064;2023-03-01T02:01:24;99871.00;;;-6.35
73685;BMP280;61985;51.070;14.064;2023-03-01T02:03:50;99857.47;;;-6.57
73685;BMP280;61985;51.070;14.064;2023-03-01T02:06:28;99854.28;;;-6.44
73685;BMP280;61985;51.070;14.064;2023-03-01T02:08:57;99839.75;;;-6.31
73685;BMP280;61985;51.070;14.064;2023-03-01T02:11:24;99851.69;;;-6.54
73685;BMP280;61985;51.070;14.064;2023-03-01T02:13:51;99848.56;;;-6.56
73685;BMP280;61985;51.070;14.064;2023-03-01T02:16:18;99836.97;;;-6.45
73685;BMP280;61985;51.070;14.064;2023-03-01T02:18:44;99829.03;;;-6.35
73685;BMP280;61985;51.070;14.064;2023-03-01T02:24:21;99825.94;;;-6.37
73685;BMP280;61985;51.070;14.064;2023-03-01T02:26:50;99835.91;;;-6.44
73685;BMP280;61985;51.070;14.064;2023-03-01T02:29:16;99833.34;;;-6.49
73685;BMP280;61985;51.070;14.064;2023-03-01T02:31:42;99826.53;;;-6.55
73685;BMP280;61985;51.070;14.064;2023-03-01T02:34:19;99827.13;;;-6.63
73685;BMP280;61985;51.070;14.064;2023-03-01T02:36:49;99811.41;;;-6.63
73685;BMP280;61985;51.070;14.064;2023-03-01T02:39:23;99816.38;;;-6.62
73685;BMP280;61985;51.070;14.064;2023-03-01T02:41:52;99817.75;;;-6.80
73685;BMP280;61985;51.070;14.064;2023-03-01T02:44:19;99821.44;;;-6.86
73685;BMP280;61985;51.070;14.064;2023-03-01T02:46:47;99818.06;;;-6.87
73685;BMP280;61985;51.070;14.064;2023-03-01T02:49:24;99818.06;;;-6.92
73685;BMP280;61985;51.070;14.064;2023-03-01T02:54:41;99814.16;;;-6.99
73685;BMP280;61985;51.070;14.064;2023-03-01T02:57:08;99810.56;;;-7.19
73685;BMP280;61985;51.070;14.064;2023-03-01T02:59:35;99810.03;;;-7.21
73685;BMP280;61985;51.070;14.064;2023-03-01T03:02:05;99810.34;;;-7.33
73685;BMP280;61985;51.070;14.064;2023-03-01T03:04:30;99810.56;;;-7.24
73685;BMP280;61985;51.070;14.064;2023-03-01T03:06:56;99815.25;;;-7.06
73685;BMP280;61985;51.070;14.064;2023-03-01T03:09:21;99812.16;;;-7.23
73685;BMP280;61985;51.070;14.064;2023-03-01T03:11:46;99813.88;;;-6.98
73685;BMP280;61985;51.070;14.064;2023-03-01T03:14:14;99818.97;;;-7.22
73685;BMP280;61985;51.070;14.064;2023-03-01T03:16:46;99814.75;;;-7.18
73685;BMP280;61985;51.070;14.064;2023-03-01T03:19:12;99808.16;;;-7.10
73685;BMP280;61985;51.070;14.064;2023-03-01T03:21:37;99810.00;;;-7.06
73685;BMP280;61985;51.070;14.064;2023-03-01T03:24:03;99810.00;;;-7.01
73685;BMP280;61985;51.070;14.064;2023-03-01T03:26:29;99796.63;;;-7.04
73685;BMP280;61985;51.070;14.064;2023-03-01T03:28:55;99807.31;;;-6.90
73685;BMP280;61985;51.070;14.064;2023-03-01T03:31:20;99798.41;;;-6.89
73685;BMP280;61985;51.070;14.064;2023-03-01T03:33:45;99800.00;;;-6.93
73685;BMP280;61985;51.070;14.064;2023-03-01T03:36:18;99801.88;;;-6.99
73685;BMP280;61985;51.070;14.064;2023-03-01T03:38:44;99798.97;;;-7.03
73685;BMP280;61985;51.070;14.064;2023-03-01T03:41:12;99790.84;;;-7.06
73685;BMP280;61985;51.070;14.064;2023-03-01T03:43:39;99790.09;;;-7.07
73685;BMP280;61985;51.070;14.064;2023-03-01T03:46:05;99800.78;;;-6.98
73685;BMP280;61985;51.070;14.064;2023-03-01T03:48:34;99793.25;;;-7.15
73685;BMP280;61985;51.070;14.064;2023-03-01T03:51:00;99791.72;;;-7.16
73685;BMP280;61985;51.070;14.064;2023-03-01T03:53:26;99799.31;;;-7.25
73685;BMP280;61985;51.070;14.064;2023-03-01T03:55:52;99791.94;;;-7.12
73685;BMP280;61985;51.070;14.064;2023-03-01T03:58:19;99792.72;;;-7.07
73685;BMP280;61985;51.070;14.064;2023-03-01T04:00:47;99791.69;;;-7.11
73685;BMP280;61985;51.070;14.064;2023-03-01T04:03:14;99795.34;;;-7.12
73685;BMP280;61985;51.070;14.064;2023-03-01T04:05:40;99799.25;;;-7.09
73685;BMP280;61985;51.070;14.064;2023-03-01T04:08:06;99804.75;;;-7.06
73685;BMP280;61985;51.070;14.064;2023-03-01T04:10:40;99795.34;;;-7.07
73685;BMP280;61985;51.070;14.064;2023-03-01T04:13:06;99789.03;;;-7.06
73685;BMP280;61985;51.070;14.064;2023-03-01T04:15:33;99800.84;;;-7.08
73685;BMP280;61985;51.070;14.064;2023-03-01T04:17:59;99798.19;;;-6.93
73685;BMP280;61985;51.070;14.064;2023-03-01T04:20:28;99800.16;;;-7.40
73685;BMP280;61985;51.070;14.064;2023-03-01T04:22:59;99791.78;;;-7.42
73685;BMP280;61985;51.070;14.064;2023-03-01T04:25:33;99794.13;;;-7.45
73685;BMP280;61985;51.070;14.064;2023-03-01T04:27:58;99798.56;;;-7.36
73685;BMP280;61985;51.070;14.064;2023-03-01T04:30:24;99796.72;;;-7.35
73685;BMP280;61985;51.070;14.064;2023-03-01T04:32:50;99794.41;;;-7.57
73685;BMP280;61985;51.070;14.064;2023-03-01T04:35:15;99790.50;;;-7.55
73685;BMP280;61985;51.070;14.064;2023-03-01T04:37:41;99791.78;;;-7.47
73685;BMP280;61985;51.070;14.064;2023-03-01T04:40:07;99786.00;;;-7.39
73685;BMP280;61985;51.070;14.064;2023-03-01T04:42:41;99787.06;;;-7.45
73685;BMP280;61985;51.070;14.064;2023-03-01T04:45:07;99781.25;;;-7.31
73685;BMP280;61985;51.070;14.064;2023-03-01T04:47:39;99786.19;;;-7.14
73685;BMP280;61985;51.070;14.064;2023-03-01T04:50:04;99790.66;;;-7.15
73685;BMP280;61985;51.070;14.064;2023-03-01T04:52:30;99796.69;;;-7.14
73685;BMP280;61985;51.070;14.064;2023-03-01T04:54:56;99790.66;;;-7.15
73685;BMP280;61985;51.070;14.064;2023-03-01T04:57:22;99787.00;;;-7.24
73685;BMP280;61985;51.070;14.064;2023-03-01T04:59:47;99788.84;;;-7.35
73685;BMP280;61985;51.070;14.064;2023-03-01T05:02:12;99788.63;;;-7.39
73685;BMP280;61985;51.070;14.064;2023-03-01T05:04:37;99789.13;;;-7.37
73685;BMP280;61985;51.070;14.064;2023-03-01T05:07:03;99797.47;;;-7.24
73685;BMP280;61985;51.070;14.064;2023-03-01T05:09:28;99796.69;;;-7.25
73685;BMP280;61985;51.070;14.064;2023-03-01T05:11:53;99784.66;;;-7.26
73685;BMP280;61985;51.070;14.064;2023-03-01T05:14:19;99790.19;;;-7.43
73685;BMP280;61985;51.070;14.064;2023-03-01T05:16:44;99782.09;;;-7.41
73685;BMP280;61985;51.070;14.064;2023-03-01T05:19:09;99778.91;;;-7.33
73685;BMP280;61985;51.070;14.064;2023-03-01T05:21:41;99777.09;;;-7.38
73685;BMP280;61985;51.070;14.064;2023-03-01T05:24:27;99777.38;;;-7.49
73685;BMP280;61985;51.070;14.064;2023-03-01T05:26:52;99774.72;;;-7.44
73685;BMP280;61985;51.070;14.064;2023-03-01T05:29:23;99774.81;;;-7.65
73685;BMP280;61985;51.070;14.064;2023-03-01T05:31:52;99775.84;;;-7.71
73685;BMP280;61985;51.070;14.064;2023-03-01T05:34:22;99777.16;;;-7.63
73685;BMP280;61985;51.070;14.064;2023-03-01T05:36:48;99773.53;;;-7.78
73685;BMP280;61985;51.070;14.064;2023-03-01T05:39:19;99769.03;;;-7.62
73685;BMP280;61985;51.070;14.064;2023-03-01T05:41:44;99772.19;;;-7.65
73685;BMP280;61985;51.070;14.064;2023-03-01T05:44:09;99763.81;;;-7.62
73685;BMP280;61985;51.070;14.064;2023-03-01T05:46:36;99763.00;;;-7.57
73685;BMP280;61985;51.070;14.064;2023-03-01T05:49:01;99765.13;;;-7.59
73685;BMP280;61985;51.070;14.064;2023-03-01T05:51:27;99767.19;;;-7.56
73685;BMP280;61985;51.070;14.064;2023-03-01T05:53:52;99763.53;;;-7.60
73685;BMP280;61985;51.070;14.064;2023-03-01T05:56:18;99769.31;;;-7.63
73685;BMP280;61985;51.070;14.064;2023-03-01T05:58:43;99772.69;;;-7.53
73685;BMP280;61985;51.070;14.064;2023-03-01T06:01:12;99790.75;;;-7.66
73685;BMP280;61985;51.070;14.064;2023-03-01T06:03:38;99779.00;;;-7.79
73685;BMP280;61985;51.070;14.064;2023-03-01T06:06:03;99782.41;;;-7.74
73685;BMP280;61985;51.070;14.064;2023-03-01T06:08:29;99784.00;;;-7.88
73685;BMP280;61985;51.070;14.064;2023-03-01T06:10:54;99780.84;;;-8.00
73685;BMP280;61985;51.070;14.064;2023-03-01T06:13:19;99776.66;;;-8.07
73685;BMP280;61985;51.070;14.064;2023-03-01T06:15:45;99777.97;;;-8.20
73685;BMP280;61985;51.070;14.064;2023-03-01T06:18:10;99774.06;;;-8.01
73685;BMP280;61985;51.070;14.064;2023-03-01T06:20:35;99778.50;;;-7.87
73685;BMP280;61985;51.070;14.064;2023-03-01T06:23:01;99785.81;;;-7.83
73685;BMP280;61985;51.070;14.064;2023-03-01T06:25:27;99793.41;;;-7.82
73685;BMP280;61985;51.070;14.064;2023-03-01T06:27:52;99792.34;;;-7.65
73685;BMP280;61985;51.070;14.064;2023-03-01T06:30:19;99787.56;;;-7.43
73685;BMP280;61985;51.070;14.064;2023-03-01T06:32:45;99794.63;;;-7.28
73685;BMP280;61985;51.070;14.064;2023-03-01T06:35:12;99792.50;;;-7.21
73685;BMP280;61985;51.070;14.064;2023-03-01T06:37:38;99796.88;;;-7.01
73685;BMP280;61985;51.070;14.064;2023-03-01T06:40:04;99804.44;;;-6.94
73685;BMP280;61985;51.070;14.064;2023-03-01T06:42:34;99798.69;;;-6.96
73685;BMP280;61985;51.070;14.064;2023-03-01T06:44:59;99799.94;;;-6.83
73685;BMP280;61985;51.070;14.064;2023-03-01T06:47:25;99794.19;;;-6.85
73685;BMP280;61985;51.070;14.064;2023-03-01T06:49:50;99801.00;;;-6.79
73685;BMP280;61985;51.070;14.064;2023-03-01T06:52:15;99794.56;;;-6.52
73685;BMP280;61985;51.070;14.064;2023-03-01T06:54:40;99800.69;;;-6.33
73685;BMP280;61985;51.070;14.064;2023-03-01T06:57:06;99795.84;;;-6.15
73685;BMP280;61985;51.070;14.064;2023-03-01T06:59:31;99795.75;;;-6.05
73685;BMP280;61985;51.070;14.064;2023-03-01T07:01:56;99796.00;;;-6.01
73685;BMP280;61985;51.070;14.064;2023-03-01T07:04:22;99792.00;;;-5.93
73685;BMP280;61985;51.070;14.064;2023-03-01T07:06:47;99797.13;;;-5.78
73685;BMP280;61985;51.070;14.064;2023-03-01T07:09:19;99797.06;;;-5.73
73685;BMP280;61985;51.070;14.064;2023-03-01T07:11:47;99797.19;;;-5.59
73685;BMP280;61985;51.070;14.064;2023-03-01T07:14:12;99798.88;;;-5.44
73685;BMP280;61985;51.070;14.064;2023-03-01T07:16:37;99788.47;;;-5.54
73685;BMP280;61985;51.070;14.064;2023-03-01T07:19:02;99790.09;;;-5.34
73685;BMP280;61985;51.070;14.064;2023-03-01T07:21:28;99784.41;;;-5.22
73685;BMP280;61985;51.070;14.064;2023-03-01T07:23:53;99780.16;;;-5.18
73685;BMP280;61985;51.070;14.064;2023-03-01T07:26:18;99776.31;;;-5.26
73685;BMP280;61985;51.070;14.064;2023-03-01T07:28:43;99784.97;;;-5.25
73685;BMP280;61985;51.070;14.064;2023-03-01T07:31:09;99782.47;;;-5.12
73685;BMP280;61985;51.070;14.064;2023-03-01T07:33:34;99782.41;;;-5.06
73685;BMP280;61985;51.070;14.064;2023-03-01T07:36:01;99788.31;;;-4.96
73685;BMP280;61985;51.070;14.064;2023-03-01T07:38:27;99792.16;;;-4.88
73685;BMP280;61985;51.070;14.064;2023-03-01T07:40:57;99790.56;;;-4.70
73685;BMP280;61985;51.070;14.064;2023-03-01T07:43:22;99789.69;;;-4.60
73685;BMP280;61985;51.070;14.064;2023-03-01T07:45:47;99790.94;;;-4.57
73685;BMP280;61985;51.070;14.064;2023-03-01T07:48:13;99782.81;;;-4.42
73685;BMP280;61985;51.070;14.064;2023-03-01T07:50:38;99787.19;;;-4.18
73685;BMP280;61985;51.070;14.064;2023-03-01T07:53:03;99780.84;;;-4.17
73685;BMP280;61985;51.070;14.064;2023-03-01T07:55:29;99775.97;;;-4.10
73685;BMP280;61985;51.070;14.064;2023-03-01T07:57:55;99777.38;;;-3.99
73685;BMP280;61985;51.070;14.064;2023-03-01T08:00:20;99763.81;;;-3.92
73685;BMP280;61985;51.070;14.064;2023-03-01T08:02:45;99770.75;;;-3.82
73685;BMP280;61985;51.070;14.064;2023-03-01T08:05:11;99769.97;;;-3.69
73685;BMP280;61985;51.070;14.064;2023-03-01T08:07:37;99770.38;;;-3.62
73685;BMP280;61985;51.070;14.064;2023-03-01T08:10:02;99777.09;;;-3.56
73685;BMP280;61985;51.070;14.064;2023-03-01T08:12:28;99778.09;;;-3.51
73685;BMP280;61985;51.070;14.064;2023-03-01T08:14:53;99770.38;;;-3.48
73685;BMP280;61985;51.070;14.064;2023-03-01T08:17:19;99761.75;;;-3.53
73685;BMP280;61985;51.070;14.064;2023-03-01T08:19:44;99757.50;;;-3.49
73685;BMP280;61985;51.070;14.064;2023-03-01T08:22:09;99758.13;;;-3.30
73685;BMP280;61985;51.070;14.064;2023-03-01T08:24:35;99752.06;;;-3.16
73685;BMP280;61985;51.070;14.064;2023-03-01T08:27:00;99759.97;;;-3.16
73685;BMP280;61985;51.070;14.064;2023-03-01T08:29:28;99756.44;;;-3.12
73685;BMP280;61985;51.070;14.064;2023-03-01T08:31:53;99757.41;;;-3.08
73685;BMP280;61985;51.070;14.064;2023-03-01T08:34:19;99753.41;;;-3.05
73685;BMP280;61985;51.070;14.064;2023-03-01T08:36:45;99748.69;;;-2.94
73685;BMP280;61985;51.070;14.064;2023-03-01T08:39:13;99752.06;;;-2.80
73685;BMP280;61985;51.070;14.064;2023-03-01T08:41:40;99740.97;;;-2.68
73685;BMP280;61985;51.070;14.064;2023-03-01T08:44:06;99766.34;;;-2.58
73685;BMP280;61985;51.070;14.064;2023-03-01T08:46:37;99771.00;;;-2.55
73685;BMP280;61985;51.070;14.064;2023-03-01T08:49:11;99764.69;;;-2.45
73685;BMP280;61985;51.070;14.064;2023-03-01T08:51:36;99769.72;;;-2.35
73685;BMP280;61985;51.070;14.064;2023-03-01T08:54:07;99768.34;;;-2.33
73685;BMP280;61985;51.070;14.064;2023-03-01T08:56:35;99765.16;;;-2.21
73685;BMP280;61985;51.070;14.064;2023-03-01T08:59:00;99764.41;;;-2.12
73685;BMP280;61985;51.070;14.064;2023-03-01T09:01:25;99761.66;;;-1.99
73685;BMP280;61985;51.070;14.064;2023-03-01T09:03:51;99752.72;;;-1.89
73685;BMP280;61985;51.070;14.064;2023-03-01T09:06:16;99750.09;;;-1.71
73685;BMP280;61985;51.070;14.064;2023-03-01T09:08:43;99753.88;;;-1.55
73685;BMP280;61985;51.070;14.064;2023-03-01T09:11:12;99740.38;;;-1.27
73685;BMP280;61985;51.070;14.064;2023-03-01T09:13:37;99736.34;;;-1.33
73685;BMP280;61985;51.070;14.064;2023-03-01T09:16:05;99737.88;;;-1.15
73685;BMP280;61985;51.070;14.064;2023-03-01T09:18:32;99728.69;;;-1.09
73685;BMP280;61985;51.070;14.064;2023-03-01T09:21:03;99735.84;;;-0.92
73685;BMP280;61985;51.070;14.064;2023-03-01T09:23:33;99729.47;;;-0.82
73685;BMP280;61985;51.070;14.064;2023-03-01T09:25:58;99731.94;;;-0.68
73685;BMP280;61985;51.070;14.064;2023-03-01T09:28:23;99727.53;;;-0.64
73685;BMP280;61985;51.070;14.064;2023-03-01T09:30:49;99719.41;;;-0.50
73685;BMP280;61985;51.070;14.064;2023-03-01T09:33:14;99720.66;;;-0.56
73685;BMP280;61985;51.070;14.064;2023-03-01T09:35:40;99719.69;;;-0.43
73685;BMP280;61985;51.070;14.064;2023-03-01T09:38:11;99715.91;;;-0.24
73685;BMP280;61985;51.070;14.064;2023-03-01T09:40:36;99722.91;;;-0.20
73685;BMP280;61985;51.070;14.064;2023-03-01T09:43:15;99721.41;;;0.01
73685;BMP280;61985;51.070;14.064;2023-03-01T09:45:46;99733.69;;;0.05
73685;BMP280;61985;51.070;14.064;2023-03-01T09:48:21;99733.63;;;0.14
73685;BMP280;61985;51.070;14.064;2023-03-01T09:50:49;99728.41;;;0.26
73685;BMP280;61985;51.070;14.064;2023-03-01T09:53:24;99736.28;;;0.35
73685;BMP280;61985;51.070;14.064;2023-03-01T10:01:44;99714.91;;;0.61
73685;BMP280;61985;51.070;14.064;2023-03-01T10:04:26;99720.09;;;0.58
73685;BMP280;61985;51.070;14.064;2023-03-01T10:09:59;99723.13;;;0.68
73685;BMP280;61985;51.070;14.064;2023-03-01T10:12:32;99726.06;;;0.88
73685;BMP280;61985;51.070;14.064;2023-03-01T10:15:09;99727.63;;;0.89
73685;BMP280;61985;51.070;14.064;2023-03-01T10:17:51;99726.72;;;0.85
73685;BMP280;61985;51.070;14.064;2023-03-01T10:22:43;99728.00;;;1.00
73685;BMP280;61985;51.070;14.064;2023-03-01T10:25:13;99719.59;;;0.98
73685;BMP280;61985;51.070;14.064;2023-03-01T10:27:54;99729.56;;;1.01
73685;BMP280;61985;51.070;14.064;2023-03-01T10:32:46;99727.47;;;1.06
73685;BMP280;61985;51.070;14.064;2023-03-01T10:35:18;99727.16;;;1.20
73685;BMP280;61985;51.070;14.064;2023-03-01T10:38:16;99724.72;;;1.15
73685;BMP280;61985;51.070;14.064;2023-03-01T10:43:19;99721.84;;;1.20
73685;BMP280;61985;51.070;14.064;2023-03-01T10:45:44;99713.25;;;1.23
73685;BMP280;61985;51.070;14.064;2023-03-01T10:48:24;99709.28;;;1.30
73685;BMP280;61985;51.070;14.064;2023-03-01T10:51:06;99709.25;;;1.42
73685;BMP280;61985;51.070;14.064;2023-03-01T10:53:37;99702.53;;;1.44
73685;BMP280;61985;51.070;14.064;2023-03-01T10:56:06;99705.72;;;1.50
73685;BMP280;61985;51.070;14.064;2023-03-01T10:58:33;99707.63;;;1.50
73685;BMP280;61985;51.070;14.064;2023-03-01T11:01:03;99697.56;;;1.55
73685;BMP280;61985;51.070;14.064;2023-03-01T11:03:34;99693.44;;;1.70
73685;BMP280;61985;51.070;14.064;2023-03-01T11:08:46;99697.00;;;1.74
73685;BMP280;61985;51.070;14.064;2023-03-01T11:16:35;99695.97;;;1.91
73685;BMP280;61985;51.070;14.064;2023-03-01T11:19:15;99694.09;;;1.92
73685;BMP280;61985;51.070;14.064;2023-03-01T11:21:52;99689.78;;;1.87
73685;BMP280;61985;51.070;14.064;2023-03-01T11:24:19;99677.25;;;2.00
73685;BMP280;61985;51.070;14.064;2023-03-01T11:26:52;99689.22;;;2.06
73685;BMP280;61985;51.070;14.064;2023-03-01T11:29:26;99680.22;;;2.23
73685;BMP280;61985;51.070;14.064;2023-03-01T11:31:56;99680.06;;;2.32
73685;BMP280;61985;51.070;14.064;2023-03-01T11:34:51;99684.00;;;2.38
73685;BMP280;61985;51.070;14.064;2023-03-01T11:37:43;99680.00;;;2.44
73685;BMP280;61985;51.070;14.064;2023-03-01T11:40:11;99678.22;;;2.48
73685;BMP280;61985;51.070;14.064;2023-03-01T11:42:52;99683.63;;;2.52
73685;BMP280;61985;51.070;14.064;2023-03-01T11:45:22;99685.97;;;2.53
73685;BMP280;61985;51.070;14.064;2023-03-01T11:58:26;99671.38;;;2.35
73685;BMP280;61985;51.070;14.064;2023-03-01T12:01:02;99672.66;;;2.53
73685;BMP280;61985;51.070;14.064;2023-03-01T12:06:44;99670.88;;;2.58
73685;BMP280;61985;51.070;14.064;2023-03-01T12:12:24;99660.53;;;2.84
73685;BMP280;61985;51.070;14.064;2023-03-01T12:15:22;99656.66;;;2.82
73685;BMP280;61985;51.070;14.064;2023-03-01T12:18:05;99655.19;;;2.84
73685;BMP280;61985;51.070;14.064;2023-03-01T12:21:23;99648.84;;;3.05
73685;BMP280;61985;51.070;14.064;2023-03-01T12:35:10;99643.44;;;3.17
73685;BMP280;61985;51.070;14.064;2023-03-01T12:40:51;99624.09;;;3.04
73685;BMP280;61985;51.070;14.064;2023-03-01T12:43:40;99636.66;;;3.04
73685;BMP280;61985;51.070;14.064;2023-03-01T12:49:13;99623.84;;;3.09
73685;BMP280;61985;51.070;14.064;2023-03-01T12:52:02;99619.78;;;3.32
73685;BMP280;61985;51.070;14.064;2023-03-01T12:54:31;99616.25;;;3.43
73685;BMP280;61985;51.070;14.064;2023-03-01T12:57:06;99605.34;;;3.68
73685;BMP280;61985;51.070;14.064;2023-03-01T12:59:41;99604.25;;;3.89
73685;BMP280;61985;51.070;14.064;2023-03-01T13:02:20;99603.63;;;3.76
73685;BMP280;61985;51.070;14.064;2023-03-01T13:07:30;99603.47;;;3.88
73685;BMP280;61985;51.070;14.064;2023-03-01T13:12:44;99608.63;;;4.39
73685;BMP280;61985;51.070;14.064;2023-03-01T13:17:48;99609.44;;;4.20
73685;BMP280;61985;51.070;14.064;2023-03-01T13:20:17;99605.31;;;4.27
73685;BMP280;61985;51.070;14.064;2023-03-01T13:22:43;99602.19;;;4.44
73685;BMP280;61985;51.070;14.064;2023-03-01T13:25:18;99603.34;;;4.20
73685;BMP280;61985;51.070;14.064;2023-03-01T13:27:44;99606.38;;;4.42
73685;BMP280;61985;51.070;14.064;2023-03-01T13:35:56;99603.94;;;4.56
73685;BMP280;61985;51.070;14.064;2023-03-01T13:38:44;99600.44;;;4.75
73685;BMP280;61985;51.070;14.064;2023-03-01T13:41:12;99597.66;;;4.91
73685;BMP280;61985;51.070;14.064;2023-03-01T13:43:39;99590.13;;;5.00
73685;BMP280;61985;51.070;14.064;2023-03-01T13:46:12;99585.72;;;5.11
73685;BMP280;61985;51.070;14.064;2023-03-01T13:48:43;99577.34;;;5.13
73685;BMP280;61985;51.070;14.064;2023-03-01T13:51:10;99574.97;;;5.35
73685;BMP280;61985;51.070;14.064;2023-03-01T13:53:41;99589.00;;;5.28
73685;BMP280;61985;51.070;14.064;2023-03-01T13:56:12;99580.88;;;5.51
73685;BMP280;61985;51.070;14.064;2023-03-01T13:58:51;99586.97;;;5.48
73685;BMP280;61985;51.070;14.064;2023-03-01T14:01:34;99582.91;;;5.58
73685;BMP280;61985;51.070;14.064;2023-03-01T14:04:16;99580.41;;;5.76
73685;BMP280;61985;51.070;14.064;2023-03-01T14:06:43;99574.03;;;5.54
73685;BMP280;61985;51.070;14.064;2023-03-01T14:09:16;99570.31;;;5.62
73685;BMP280;61985;51.070;14.064;2023-03-01T14:12:11;99573.47;;;5.71
73685;BMP280;61985;51.070;14.064;2023-03-01T14:14:52;99567.47;;;5.81
73685;BMP280;61985;51.070;14.064;2023-03-01T14:17:38;99563.47;;;5.95
73685;BMP280;61985;51.070;14.064;2023-03-01T14:20:14;99571.78;;;5.89
73685;BMP280;61985;51.070;14.064;2023-03-01T14:22:42;99562.50;;;5.76
73685;BMP280;61985;51.070;14.064;2023-03-01T14:25:27;99572.41;;;6.58
73685;BMP280;61985;51.070;14.064;2023-03-01T14:27:56;99559.53;;;6.78
73685;BMP280;61985;51.070;14.064;2023-03-01T14:30:59;99557.03;;;7.10
73685;BMP280;61985;51.070;14.064;2023-03-01T14:33:25;99553.50;;;6.92
73685;BMP280;61985;51.070;14.064;2023-03-01T14:36:06;99559.44;;;7.26
73685;BMP280;61985;51.070;14.064;2023-03-01T14:38:35;99553.31;;;7.29
73685;BMP280;61985;51.070;14.064;2023-03-01T14:41:04;99546.50;;;6.73
73685;BMP280;61985;51.070;14.064;2023-03-01T14:43:30;99547.00;;;6.96
73685;BMP280;61985;51.070;14.064;2023-03-01T14:45:56;99543.41;;;7.40
73685;BMP280;61985;51.070;14.064;2023-03-01T14:48:22;99539.44;;;7.09
73685;BMP280;61985;51.070;14.064;2023-03-01T14:50:48;99530.28;;;7.14
73685;BMP280;61985;51.070;14.064;2023-03-01T14:53:21;99521.97;;;7.48
73685;BMP280;61985;51.070;14.064;2023-03-01T14:55:48;99532.03;;;7.87
73685;BMP280;61985;51.070;14.064;2023-03-01T14:58:19;99525.09;;;8.00
73685;BMP280;61985;51.070;14.064;2023-03-01T15:00:50;99530.41;;;7.53
73685;BMP280;61985;51.070;14.064;2023-03-01T15:03:25;99531.97;;;7.69
73685;BMP280;61985;51.070;14.064;2023-03-01T15:05:51;99529.72;;;7.82
73685;BMP280;61985;51.070;14.064;2023-03-01T15:08:21;99532.81;;;8.16
73685;BMP280;61985;51.070;14.064;2023-03-01T15:11:43;99519.34;;;7.91
73685;BMP280;61985;51.070;14.064;2023-03-01T15:13:45;99529.31;;;8.05
73685;BMP280;61985;51.070;14.064;2023-03-01T15:16:15;99521.28;;;8.26
73685;BMP280;61985;51.070;14.064;2023-03-01T15:18:49;99515.13;;;8.26
73685;BMP280;61985;51.070;14.064;2023-03-01T15:23:57;99506.72;;;8.16
73685;BMP280;61985;51.070;14.064;2023-03-01T15:26:28;99520.53;;;7.86
73685;BMP280;61985;51.070;14.064;2023-03-01T15:28:57;99506.47;;;7.01
73685;BMP280;61985;51.070;14.064;2023-03-01T15:31:36;99511.34;;;6.30
73685;BMP280;61985;51.070;14.064;2023-03-01T15:34:29;99515.16;;;5.46